Time;durP1;ratioP1;P1;durP2;ratioP2;P2;SDS_P1;SDS_P2;PMS_P1;PMS_P2;Temp;Humidity;BMP_temperature;BMP_pressure;BME280_temperature;BME280_humidity;BME280_pressure;Samples;Min_cycle;Max_cycle;Signal;HPM_P1;HPM_P2
2023/08/06 00:02:15;;;;;;;4.22;3.70;;;20.40;72.00;;;;;;5076258;28;20142;-86
2023/08/06 00:04:41;;;;;;;4.00;3.60;;;20.40;72.00;;;;;;5058986;28;20208;-84
2023/08/06 00:07:07;;;;;;;3.90;3.50;;;20.40;72.00;;;;;;5074943;28;20179;-86
2023/08/06 00:09:33;;;;;;;4.20;3.40;;;20.40;72.00;;;;;;5075007;28;20162;-85
2023/08/06 00:11:59;;;;;;;4.10;3.70;;;20.40;72.00;;;;;;5057979;28;20229;-87
2023/08/06 00:14:24;;;;;;;4.07;3.58;;;20.40;72.00;;;;;;5075142;28;20166;-86
2023/08/06 00:16:50;;;;;;;4.20;3.65;;;20.40;72.00;;;;;;5074942;28;20165;-87
2023/08/06 00:19:16;;;;;;;4.40;3.67;;;20.40;72.00;;;;;;5076014;28;20196;-86
2023/08/06 00:21:42;;;;;;;3.85;3.45;;;20.40;72.00;;;;;;5075912;28;20162;-85
2023/08/06 00:24:08;;;;;;;4.10;3.60;;;20.40;72.00;;;;;;5076064;28;20578;-86
2023/08/06 00:26:34;;;;;;;4.22;3.78;;;20.40;72.10;;;;;;5075766;28;20149;-88
2023/08/06 00:29:00;;;;;;;4.43;3.60;;;20.40;72.10;;;;;;5074570;28;20268;-86
2023/08/06 00:31:26;;;;;;;4.00;3.50;;;20.40;72.10;;;;;;5074516;28;20256;-85
2023/08/06 00:33:52;;;;;;;3.92;3.53;;;20.40;72.10;;;;;;5058325;28;20270;-86
2023/08/06 00:36:18;;;;;;;4.13;3.60;;;20.40;72.10;;;;;;5074672;28;20501;-86
2023/08/06 00:38:44;;;;;;;4.18;3.42;;;20.40;72.20;;;;;;5074360;28;20664;-86
2023/08/06 00:41:10;;;;;;;4.25;3.67;;;20.30;72.10;;;;;;5074359;28;20153;-85
2023/08/06 00:43:36;;;;;;;3.92;3.50;;;20.30;72.20;;;;;;5074584;28;20620;-85
2023/08/06 00:46:02;;;;;;;3.92;3.53;;;20.30;72.10;;;;;;5075495;28;20189;-87
2023/08/06 00:48:28;;;;;;;4.20;3.45;;;20.40;72.20;;;;;;5074172;28;20617;-87
2023/08/06 00:50:53;;;;;;;3.75;3.28;;;20.30;73.00;;;;;;5057960;28;20168;-88
2023/08/06 00:53:19;;;;;;;4.18;3.30;;;20.30;72.20;;;;;;5075346;28;20153;-87
2023/08/06 00:55:46;;;;;;;3.45;3.15;;;20.40;72.20;;;;;;5075435;28;20203;-87
2023/08/06 00:58:12;;;;;;;4.10;3.70;;;20.30;72.20;;;;;;5075261;28;20516;-87
2023/08/06 01:00:39;;;;;;;3.53;3.22;;;20.30;72.20;;;;;;5057689;28;20200;-86
2023/08/06 01:03:05;;;;;;;3.90;3.40;;;20.30;72.30;;;;;;5075240;28;20280;-85
2023/08/06 01:05:31;;;;;;;3.90;3.50;;;20.30;72.30;;;;;;5074048;28;20150;-84
2023/08/06 01:08:12;;;;;;;3.63;3.25;;;20.30;72.30;;;;;;5073960;28;20158;-87
2023/08/06 01:10:51;;;;;;;4.40;3.80;;;20.30;72.30;;;;;;5074038;28;20235;-86
2023/08/06 01:13:42;;;;;;;4.28;3.80;;;20.30;72.30;;;;;;5091220;28;20627;-88
2023/08/06 01:16:09;;;;;;;4.38;3.75;;;20.30;72.30;;;;;;5075156;28;20692;-86
2023/08/06 01:18:35;;;;;;;4.35;3.50;;;20.30;72.40;;;;;;5074641;28;20224;-85
2023/08/06 01:21:01;;;;;;;4.03;3.55;;;20.30;72.30;;;;;;5074785;28;20149;-87
2023/08/06 01:23:27;;;;;;;4.05;3.38;;;20.30;72.30;;;;;;5073856;28;20158;-85
2023/08/06 01:26:27;;;;;;;5.10;3.88;;;20.30;72.40;;;;;;5073834;28;20164;-85
2023/08/06 01:29:13;;;;;;;4.22;3.50;;;20.30;72.40;;;;;;5073480;28;20160;-86
2023/08/06 01:31:39;;;;;;;4.30;3.53;;;20.30;72.40;;;;;;5073648;28;20203;-85
2023/08/06 01:34:06;;;;;;;3.78;3.38;;;20.40;72.50;;;;;;5073338;28;20154;-87
2023/08/06 01:36:32;;;;;;;4.45;3.80;;;20.30;72.40;;;;;;5074558;28;20623;-88
2023/08/06 01:38:58;;;;;;;3.85;3.35;;;20.30;72.40;;;;;;5074385;28;20268;-87
2023/08/06 01:41:24;;;;;;;4.07;3.65;;;20.30;72.40;;;;;;5074329;28;20158;-84
2023/08/06 01:43:50;;;;;;;4.38;3.47;;;20.30;72.40;;;;;;5074359;28;20154;-85
2023/08/06 01:46:15;;;;;;;4.20;3.72;;;20.30;72.40;;;;;;5056403;28;20154;-84
2023/08/06 01:48:41;;;;;;;4.28;3.65;;;20.30;72.50;;;;;;5074190;28;20675;-89
2023/08/06 01:51:07;;;;;;;4.03;3.55;;;20.30;72.40;;;;;;5056642;28;20292;-85
2023/08/06 01:53:33;;;;;;;4.03;3.50;;;20.30;72.60;;;;;;5056264;28;20169;-86
2023/08/06 01:55:59;;;;;;;4.00;3.60;;;20.30;72.50;;;;;;5074303;28;20177;-86
2023/08/06 01:58:25;;;;;;;3.90;3.33;;;20.30;72.50;;;;;;5073071;28;20191;-88
2023/08/06 02:00:51;;;;;;;3.70;3.22;;;20.30;72.50;;;;;;5072899;28;20746;-87
2023/08/06 02:03:17;;;;;;;4.28;3.70;;;20.30;72.50;;;;;;5072861;28;20172;-87
2023/08/06 02:05:43;;;;;;;3.53;3.08;;;20.30;72.60;;;;;;5072252;28;20308;-88
2023/08/06 02:08:09;;;;;;;4.18;3.75;;;20.30;72.50;;;;;;5055916;28;20183;-85
2023/08/06 02:10:35;;;;;;;3.53;3.17;;;20.30;72.60;;;;;;5072425;28;20738;-88
2023/08/06 02:13:01;;;;;;;4.30;3.42;;;20.30;72.60;;;;;;5072502;28;20169;-88
2023/08/06 02:15:27;;;;;;;4.40;3.42;;;20.30;72.60;;;;;;5072602;28;20256;-84
2023/08/06 02:17:53;;;;;;;3.25;2.95;;;20.30;72.60;;;;;;5073907;28;20154;-87
2023/08/06 02:20:19;;;;;;;4.55;3.60;;;20.30;72.70;;;;;;5072432;28;20185;-87
2023/08/06 02:22:45;;;;;;;3.80;3.33;;;20.30;72.70;;;;;;5072439;28;20165;-86
2023/08/06 02:25:11;;;;;;;3.50;3.10;;;20.30;72.70;;;;;;5073926;28;20150;-87
2023/08/06 02:27:38;;;;;;;3.75;3.40;;;20.30;72.70;;;;;;5072322;28;20175;-86
2023/08/06 02:30:05;;;;;;;3.70;3.10;;;20.30;72.80;;;;;;5073611;28;20176;-85
2023/08/06 02:32:32;;;;;;;3.80;3.33;;;20.30;72.70;;;;;;5055612;28;20170;-85
2023/08/06 02:34:58;;;;;;;3.78;3.35;;;20.30;72.70;;;;;;5073370;28;20612;-85
2023/08/06 02:37:24;;;;;;;3.80;3.35;;;20.30;72.80;;;;;;5073605;28;20181;-85
2023/08/06 02:39:50;;;;;;;4.05;3.33;;;20.30;72.80;;;;;;5073612;28;20181;-88
2023/08/06 02:42:16;;;;;;;4.00;3.40;;;20.20;72.60;;;;;;5073039;28;20165;-85
2023/08/06 02:44:42;;;;;;;4.13;3.60;;;20.20;72.70;;;;;;5073363;28;20315;-88
2023/08/06 02:47:08;;;;;;;4.75;3.67;;;20.20;72.70;;;;;;5072156;28;20496;-86
2023/08/06 02:49:34;;;;;;;3.92;3.53;;;20.30;72.80;;;;;;5072148;28;20632;-85
2023/08/06 02:52:01;;;;;;;4.22;3.70;;;20.20;72.70;;;;;;5073503;28;20686;-86
2023/08/06 02:54:26;;;;;;;3.85;3.45;;;20.20;72.70;;;;;;5072292;28;20627;-86
2023/08/06 02:56:52;;;;;;;4.05;3.65;;;20.20;72.70;;;;;;5072129;28;20153;-88
2023/08/06 02:59:18;;;;;;;3.70;3.25;;;20.30;72.80;;;;;;5055093;28;20594;-87
2023/08/06 03:01:44;;;;;;;4.00;3.60;;;20.20;72.70;;;;;;5073536;28;20664;-86
2023/08/06 03:04:10;;;;;;;3.60;3.30;;;20.20;72.70;;;;;;5071892;28;20605;-87
2023/08/06 03:06:36;;;;;;;3.78;3.38;;;20.20;72.70;;;;;;5055167;28;20593;-85
2023/08/06 03:09:02;;;;;;;5.03;3.33;;;20.20;72.80;;;;;;5073692;28;20614;-87
2023/08/06 03:11:28;;;;;;;3.90;3.42;;;20.20;72.70;;;;;;5072381;28;20277;-86
2023/08/06 03:13:54;;;;;;;4.03;3.20;;;20.20;72.70;;;;;;5071022;28;20169;-85
2023/08/06 03:16:20;;;;;;;3.75;3.30;;;20.30;72.80;;;;;;5070900;28;20252;-87
2023/08/06 03:18:46;;;;;;;4.60;3.55;;;20.20;72.80;;;;;;5074232;28;20189;-86
2023/08/06 03:21:12;;;;;;;3.50;3.20;;;20.20;72.70;;;;;;5074590;28;20165;-85
2023/08/06 03:23:37;;;;;;;4.28;3.42;;;20.30;72.80;;;;;;5057958;28;20161;-86
2023/08/06 03:26:04;;;;;;;4.07;3.50;;;20.20;72.70;;;;;;5074958;28;20176;-88
2023/08/06 03:28:30;;;;;;;4.53;3.63;;;20.30;72.80;;;;;;5074427;28;20238;-88
2023/08/06 03:31:01;;;;;;;4.18;3.55;;;20.30;72.80;;;;;;5074386;28;20200;-84
2023/08/06 03:33:27;;;;;;;3.72;3.08;;;20.30;72.80;;;;;;5074352;28;20242;-86
2023/08/06 03:35:53;;;;;;;3.70;3.30;;;20.20;72.80;;;;;;5074336;28;20157;-87
2023/08/06 03:38:19;;;;;;;3.95;3.10;;;20.30;72.90;;;;;;5075507;28;20232;-88
2023/08/06 03:40:45;;;;;;;4.10;3.45;;;20.20;72.70;;;;;;5058211;28;20196;-86
2023/08/06 03:43:11;;;;;;;3.58;3.20;;;20.20;72.80;;;;;;5075667;28;20232;-85
2023/08/06 03:45:37;;;;;;;4.18;3.42;;;20.20;72.80;;;;;;5057656;28;20171;-85
2023/08/06 03:48:04;;;;;;;3.88;3.35;;;20.20;72.80;;;;;;5074240;28;20150;-88
2023/08/06 03:50:30;;;;;;;3.55;3.10;;;20.30;72.80;;;;;;5075348;28;20192;-86
2023/08/06 03:52:55;;;;;;;3.80;3.28;;;20.20;72.90;;;;;;5074181;28;20150;-86
2023/08/06 03:55:21;;;;;;;3.83;3.42;;;20.20;72.80;;;;;;5075405;28;20577;-86
2023/08/06 03:57:47;;;;;;;3.90;3.50;;;20.20;72.90;;;;;;5073975;28;20169;-87
2023/08/06 04:00:13;;;;;;;3.75;3.30;;;20.20;72.90;;;;;;5073967;28;20197;-86
2023/08/06 04:02:39;;;;;;;3.90;3.45;;;20.20;72.90;;;;;;5073915;28;20512;-87
2023/08/06 04:05:05;;;;;;;3.80;3.40;;;20.20;72.90;;;;;;5073901;28;20158;-87
2023/08/06 04:07:31;;;;;;;4.18;3.75;;;20.20;72.90;;;;;;5057510;28;20613;-87
2023/08/06 04:09:59;;;;;;;4.05;3.65;;;20.20;72.90;;;;;;5056880;28;20271;-88
2023/08/06 04:12:25;;;;;;;3.90;3.50;;;20.20;73.00;;;;;;5025857;28;1402257;-87
2023/08/06 04:14:52;;;;;;;4.00;3.60;;;20.20;72.90;;;;;;5058099;28;20264;-88
2023/08/06 04:17:20;;;;;;;4.30;3.72;;;20.30;72.80;;;;;;5074765;28;20185;-87
2023/08/06 04:19:48;;;;;;;4.15;3.42;;;20.30;72.90;;;;;;5074765;28;20591;-85
2023/08/06 04:22:14;;;;;;;3.92;3.45;;;20.20;72.90;;;;;;5075009;28;20154;-89
2023/08/06 04:24:40;;;;;;;3.58;3.28;;;20.20;72.80;;;;;;5075915;28;20164;-85
2023/08/06 04:27:06;;;;;;;3.80;3.25;;;20.20;72.80;;;;;;5075799;28;20681;-87
2023/08/06 04:29:32;;;;;;;3.38;3.08;;;20.30;72.90;;;;;;5075394;28;20162;-87
2023/08/06 04:31:58;;;;;;;4.13;3.60;;;20.30;72.80;;;;;;5057752;28;20206;-88
2023/08/06 04:34:24;;;;;;;3.58;3.20;;;20.30;72.80;;;;;;5074587;28;20200;-87
2023/08/06 04:36:50;;;;;;;3.72;3.13;;;20.30;72.80;;;;;;5074488;28;20185;-85
2023/08/06 04:39:16;;;;;;;4.20;3.38;;;20.30;72.70;;;;;;5058136;28;20197;-87
2023/08/06 04:41:42;;;;;;;4.32;3.70;;;20.30;72.70;;;;;;5074430;28;20150;-88
2023/08/06 04:44:08;;;;;;;3.17;2.88;;;20.30;72.70;;;;;;5074861;28;20519;-84
2023/08/06 04:46:34;;;;;;;3.58;3.28;;;20.20;72.60;;;;;;5057624;28;20235;-86
2023/08/06 04:48:59;;;;;;;3.40;3.10;;;20.30;72.70;;;;;;5074201;28;20162;-84
2023/08/06 04:51:25;;;;;;;3.60;3.30;;;20.30;72.70;;;;;;5076063;28;20175;-88
2023/08/06 04:53:51;;;;;;;3.92;3.53;;;20.30;72.70;;;;;;5057427;28;20241;-86
2023/08/06 04:56:17;;;;;;;3.50;3.15;;;20.30;72.70;;;;;;5075282;28;20523;-85
2023/08/06 04:58:43;;;;;;;3.90;3.50;;;20.30;72.80;;;;;;5075817;28;20515;-89
2023/08/06 05:01:09;;;;;;;4.15;3.10;;;20.30;72.80;;;;;;5075254;28;20158;-87
2023/08/06 05:03:36;;;;;;;4.03;3.33;;;20.30;72.70;;;;;;5075167;28;20161;-85
2023/08/06 05:06:02;;;;;;;3.95;3.30;;;20.30;72.70;;;;;;5073981;28;20173;-86
2023/08/06 05:08:27;;;;;;;4.53;3.60;;;20.20;72.70;;;;;;5073898;28;20157;-87
2023/08/06 05:10:53;;;;;;;4.03;3.53;;;20.30;72.80;;;;;;5073541;28;20315;-87
2023/08/06 05:13:19;;;;;;;4.07;3.33;;;20.20;72.70;;;;;;5073776;28;20153;-86
2023/08/06 05:15:46;;;;;;;3.40;3.05;;;20.30;72.80;;;;;;5073758;28;20202;-86
2023/08/06 05:18:12;;;;;;;3.53;3.20;;;20.30;72.70;;;;;;5073782;28;20157;-87
2023/08/06 05:20:42;;;;;;;3.70;3.30;;;20.20;72.70;;;;;;5074794;28;20200;-85
2023/08/06 05:23:07;;;;;;;3.55;3.25;;;20.20;72.70;;;;;;5073738;28;20608;-86
2023/08/06 05:25:35;;;;;;;4.45;3.05;;;20.30;72.80;;;;;;5074785;28;20149;-89
2023/08/06 05:28:01;;;;;;;3.85;3.40;;;20.20;72.70;;;;;;5073399;28;20153;-86
2023/08/06 05:30:28;;;;;;;3.45;3.10;;;20.30;72.80;;;;;;5073459;28;20185;-87
2023/08/06 05:32:55;;;;;;;3.90;3.45;;;20.30;72.70;;;;;;5073837;28;20154;-88
2023/08/06 05:35:21;;;;;;;3.72;3.28;;;20.30;72.60;;;;;;5073259;28;20203;-87
2023/08/06 05:37:47;;;;;;;3.35;2.90;;;20.30;72.60;;;;;;5073567;28;20158;-86
2023/08/06 05:40:14;;;;;;;3.70;3.20;;;20.30;72.70;;;;;;5072443;28;20240;-88
2023/08/06 05:42:40;;;;;;;3.40;3.08;;;20.30;72.70;;;;;;5074719;28;20223;-86
2023/08/06 05:45:06;;;;;;;4.15;3.33;;;20.30;72.60;;;;;;5073289;28;20149;-88
2023/08/06 05:47:32;;;;;;;3.33;3.03;;;20.30;72.60;;;;;;5056352;28;20211;-86
2023/08/06 05:49:58;;;;;;;4.22;3.60;;;20.30;72.60;;;;;;5056790;28;20506;-85
2023/08/06 05:52:24;;;;;;;3.53;3.20;;;20.40;72.60;;;;;;5074413;28;20177;-86
2023/08/06 05:54:50;;;;;;;3.72;3.35;;;20.30;72.50;;;;;;5072962;28;20559;-85
2023/08/06 05:57:17;;;;;;;3.72;3.33;;;20.40;72.50;;;;;;5074155;28;20187;-85
2023/08/06 05:59:43;;;;;;;3.50;3.20;;;20.30;72.40;;;;;;5073590;28;20543;-87
2023/08/06 06:02:09;;;;;;;3.75;3.17;;;20.40;72.50;;;;;;5073296;28;20165;-86
2023/08/06 06:04:35;;;;;;;3.10;2.80;;;20.40;72.40;;;;;;5072812;28;20233;-89
2023/08/06 06:07:01;;;;;;;3.80;3.08;;;20.40;72.40;;;;;;5055994;28;20710;-87
2023/08/06 06:09:27;;;;;;;4.03;3.40;;;20.40;72.40;;;;;;5056095;28;20295;-87
2023/08/06 06:11:53;;;;;;;3.80;3.10;;;20.40;72.50;;;;;;5072437;28;20722;-86
2023/08/06 06:14:19;;;;;;;3.70;3.13;;;20.40;72.50;;;;;;5072667;28;20157;-87
2023/08/06 06:16:45;;;;;;;3.72;3.10;;;20.40;72.50;;;;;;5055886;28;20185;-87
2023/08/06 06:19:11;;;;;;;3.70;3.22;;;20.30;72.60;;;;;;5055681;28;20209;-85
2023/08/06 06:21:38;;;;;;;3.33;3.03;;;20.30;72.70;;;;;;5073746;28;20162;-86
2023/08/06 06:24:05;;;;;;;3.53;3.05;;;20.40;72.50;;;;;;5073650;28;20154;-86
2023/08/06 06:26:31;;;;;;;4.07;3.67;;;20.40;73.40;;;;;;5072438;28;20149;-86
2023/08/06 06:28:58;;;;;;;3.47;3.15;;;20.40;72.60;;;;;;5073541;28;20158;-85
2023/08/06 06:31:24;;;;;;;3.75;3.35;;;20.40;72.50;;;;;;5072431;28;20161;-86
2023/08/06 06:33:49;;;;;;;3.33;2.92;;;20.40;72.50;;;;;;5072247;28;20528;-87
2023/08/06 06:36:15;;;;;;;3.33;3.03;;;20.30;72.60;;;;;;5073848;28;20154;-88
2023/08/06 06:38:41;;;;;;;3.80;3.30;;;20.30;72.70;;;;;;5073410;28;20190;-86
2023/08/06 06:41:07;;;;;;;3.50;3.00;;;20.40;72.60;;;;;;5072469;28;20157;-86
2023/08/06 06:43:33;;;;;;;3.47;3.17;;;20.40;72.70;;;;;;5072318;28;20214;-85
2023/08/06 06:45:59;;;;;;;3.40;3.08;;;20.30;73.00;;;;;;5072425;28;20153;-88
2023/08/06 06:48:27;;;;;;;3.83;3.03;;;20.40;73.00;;;;;;5055361;28;20585;-89
2023/08/06 06:50:53;;;;;;;3.28;2.97;;;20.30;73.60;;;;;;5055223;28;20616;-87
2023/08/06 06:53:19;;;;;;;3.30;3.00;;;20.30;73.30;;;;;;5055367;28;20168;-85
2023/08/06 06:55:48;;;;;;;3.00;2.70;;;20.30;73.60;;;;;;5073502;28;20181;-86
2023/08/06 06:58:16;;;;;;;2.97;2.70;;;20.30;73.70;;;;;;5072329;28;20160;-86
2023/08/06 07:00:42;;;;;;;3.08;2.67;;;20.30;74.30;;;;;;5073133;28;20553;-87
2023/08/06 07:03:08;;;;;;;3.00;2.70;;;20.20;74.30;;;;;;5072236;28;20597;-87
2023/08/06 07:05:34;;;;;;;3.17;2.85;;;20.30;74.20;;;;;;5055520;28;20162;-86
2023/08/06 07:07:59;;;;;;;3.40;3.05;;;20.30;74.40;;;;;;5071905;28;20632;-86
2023/08/06 07:10:26;;;;;;;3.10;2.80;;;20.30;74.60;;;;;;5071769;28;20296;-85
2023/08/06 07:12:51;;;;;;;3.33;2.80;;;20.30;74.80;;;;;;5071949;28;20154;-89
2023/08/06 07:15:17;;;;;;;3.30;2.95;;;20.30;75.00;;;;;;5072010;28;20169;-88
2023/08/06 07:17:43;;;;;;;2.88;2.58;;;20.20;75.00;;;;;;5073042;28;20154;-86
2023/08/06 07:20:10;;;;;;;3.42;2.80;;;20.30;75.10;;;;;;5072070;28;20193;-87
2023/08/06 07:22:36;;;;;;;3.42;2.60;;;20.30;75.10;;;;;;5071878;28;20228;-86
2023/08/06 07:25:02;;;;;;;3.42;3.00;;;20.20;75.00;;;;;;5071782;28;20157;-87
2023/08/06 07:27:28;;;;;;;3.03;2.78;;;20.30;75.00;;;;;;5073209;28;20723;-86
2023/08/06 07:29:54;;;;;;;2.70;2.50;;;20.20;75.10;;;;;;5072072;28;20215;-86
2023/08/06 07:32:20;;;;;;;3.13;2.83;;;20.20;75.20;;;;;;5072066;28;20158;-86
2023/08/06 07:34:46;;;;;;;2.88;2.58;;;20.10;75.20;;;;;;5071753;28;20165;-88
2023/08/06 07:37:12;;;;;;;2.90;2.60;;;20.20;75.50;;;;;;5071638;28;20154;-87
2023/08/06 07:39:39;;;;;;;2.88;2.42;;;20.20;75.50;;;;;;5071529;28;20196;-88
2023/08/06 07:42:06;;;;;;;3.05;2.55;;;20.20;75.50;;;;;;5055448;28;20169;-85
2023/08/06 07:44:33;;;;;;;2.88;2.53;;;20.10;75.80;;;;;;5073072;28;20597;-86
2023/08/06 07:46:58;;;;;;;2.75;2.55;;;20.20;75.70;;;;;;5071815;28;20160;-88
2023/08/06 07:49:24;;;;;;;3.22;2.92;;;20.20;75.70;;;;;;5073100;28;20169;-86
2023/08/06 07:51:52;;;;;;;3.58;2.65;;;20.30;75.90;;;;;;5072744;28;20158;-89
2023/08/06 07:54:18;;;;;;;2.90;2.65;;;20.20;75.80;;;;;;5071502;28;20146;-86
2023/08/06 07:56:44;;;;;;;2.75;2.47;;;20.20;75.90;;;;;;5071442;28;20173;-86
2023/08/06 07:59:10;;;;;;;2.97;2.65;;;20.20;75.90;;;;;;5072607;28;20182;-88
2023/08/06 08:01:36;;;;;;;2.75;2.45;;;20.20;76.00;;;;;;5072614;28;20150;-87
2023/08/06 08:04:02;;;;;;;3.05;2.70;;;20.20;76.10;;;;;;5073736;28;20165;-89
2023/08/06 08:06:28;;;;;;;3.33;2.78;;;20.20;76.00;;;;;;5075222;28;20153;-89
2023/08/06 08:08:54;;;;;;;3.00;2.70;;;20.20;76.00;;;;;;5075533;28;20518;-86
2023/08/06 08:11:20;;;;;;;2.55;2.30;;;20.20;76.00;;;;;;5075822;28;20231;-88
2023/08/06 08:13:46;;;;;;;2.85;2.55;;;20.20;76.00;;;;;;5075127;28;20173;-88
2023/08/06 08:16:12;;;;;;;3.33;2.60;;;20.20;76.00;;;;;;5074910;28;20636;-88
2023/08/06 08:18:38;;;;;;;2.83;2.45;;;20.30;75.80;;;;;;5075430;28;20166;-87
2023/08/06 08:21:04;;;;;;;2.67;2.47;;;20.30;75.80;;;;;;5074811;28;20158;-87
2023/08/06 08:23:31;;;;;;;2.53;2.33;;;20.20;75.80;;;;;;5058001;28;20621;-86
2023/08/06 08:25:57;;;;;;;2.55;2.35;;;20.30;75.90;;;;;;5058306;28;20170;-88
2023/08/06 08:28:23;;;;;;;2.97;2.67;;;20.30;75.90;;;;;;5074621;28;20527;-88
2023/08/06 08:30:49;;;;;;;2.75;2.40;;;20.20;75.70;;;;;;5076389;28;20620;-85
2023/08/06 08:33:15;;;;;;;2.70;2.50;;;20.20;75.70;;;;;;5075805;28;20158;-85
2023/08/06 08:35:41;;;;;;;2.60;2.40;;;20.20;75.80;;;;;;5076349;28;20172;-85
2023/08/06 08:38:06;;;;;;;3.20;2.70;;;20.20;75.80;;;;;;5059871;28;20165;-86
2023/08/06 08:40:33;;;;;;;2.63;2.42;;;20.20;75.70;;;;;;5075074;28;20632;-85
2023/08/06 08:43:00;;;;;;;2.80;2.40;;;20.20;75.70;;;;;;5076145;28;20153;-86
2023/08/06 08:45:28;;;;;;;2.65;2.45;;;20.30;75.20;;;;;;5075570;28;20612;-86
2023/08/06 08:47:54;;;;;;;2.58;2.33;;;20.30;75.00;;;;;;5057550;28;20339;-86
2023/08/06 08:50:20;;;;;;;2.50;2.20;;;20.40;74.90;;;;;;5074738;28;20240;-86
2023/08/06 08:52:48;;;;;;;2.50;2.25;;;20.20;74.70;;;;;;5057776;28;20507;-85
2023/08/06 08:55:15;;;;;;;2.88;2.50;;;20.30;74.90;;;;;;5074143;28;20395;-87
2023/08/06 08:57:41;;;;;;;2.65;2.45;;;20.30;74.80;;;;;;5074206;28;20629;-86
2023/08/06 09:00:07;;;;;;;2.35;2.15;;;20.30;74.80;;;;;;5057281;28;20270;-88
2023/08/06 09:02:33;;;;;;;2.47;2.28;;;20.30;74.70;;;;;;5057222;28;20620;-87
2023/08/06 09:05:02;;;;;;;3.15;2.63;;;20.30;74.60;;;;;;5057653;28;20513;-85
2023/08/06 09:07:29;;;;;;;2.10;1.90;;;20.20;74.10;;;;;;5073918;28;20596;-85
2023/08/06 09:09:55;;;;;;;2.83;2.47;;;20.30;74.10;;;;;;5057158;28;20169;-86
2023/08/06 09:12:21;;;;;;;2.58;2.35;;;20.20;74.20;;;;;;5075058;28;20581;-89
2023/08/06 09:14:47;;;;;;;2.70;2.40;;;20.30;74.20;;;;;;5073770;28;20163;-88
2023/08/06 09:17:13;;;;;;;2.53;2.33;;;20.30;74.30;;;;;;5074925;28;20240;-88
2023/08/06 09:19:45;;;;;;;2.30;2.10;;;20.30;74.10;;;;;;5074135;28;20201;-87
2023/08/06 09:22:13;;;;;;;2.50;2.20;;;20.30;73.80;;;;;;5057267;28;20619;-85
2023/08/06 09:24:40;;;;;;;2.83;2.38;;;20.30;73.60;;;;;;5075016;28;20158;-87
2023/08/06 09:27:12;;;;;;;2.58;2.38;;;20.30;73.60;;;;;;5073571;28;20160;-85
2023/08/06 09:29:41;;;;;;;2.65;2.45;;;20.30;73.80;;;;;;5056847;28;20268;-86
2023/08/06 09:32:07;;;;;;;2.95;2.50;;;20.20;73.50;;;;;;5056870;28;20192;-87
2023/08/06 09:34:33;;;;;;;2.35;2.15;;;20.30;73.40;;;;;;5057426;28;20334;-87
2023/08/06 09:36:59;;;;;;;2.83;2.50;;;20.30;73.60;;;;;;5056601;28;20623;-84
2023/08/06 09:39:29;;;;;;;2.80;2.50;;;20.30;73.60;;;;;;5073419;28;20655;-87
2023/08/06 09:41:56;;;;;;;2.35;2.15;;;20.30;73.70;;;;;;5074376;28;20158;-85
2023/08/06 09:44:24;;;;;;;2.38;2.17;;;20.20;73.60;;;;;;5056910;28;20165;-87
2023/08/06 09:46:58;;;;;;;2.17;1.98;;;20.30;73.70;;;;;;5073155;28;20161;-85
2023/08/06 09:49:42;;;;;;;2.30;2.10;;;20.30;73.50;;;;;;5075980;28;20165;-85
2023/08/06 09:52:10;;;;;;;2.65;2.33;;;20.20;73.40;;;;;;5073863;28;20149;-87
2023/08/06 09:54:36;;;;;;;2.40;2.20;;;20.30;73.50;;;;;;5075354;28;20153;-87
2023/08/06 09:57:02;;;;;;;2.80;2.50;;;20.30;73.40;;;;;;5074710;28;20149;-85
2023/08/06 09:59:28;;;;;;;2.40;2.20;;;20.30;73.60;;;;;;5075399;28;20196;-88
2023/08/06 10:01:56;;;;;;;2.28;2.00;;;20.30;73.70;;;;;;5074436;28;20152;-86
2023/08/06 10:04:21;;;;;;;3.03;2.63;;;20.30;73.60;;;;;;5073983;28;20542;-88
2023/08/06 10:06:48;;;;;;;3.00;2.63;;;20.30;73.70;;;;;;5073957;28;20154;-86
2023/08/06 10:09:24;;;;;;;3.03;2.38;;;20.30;73.80;;;;;;5074440;28;20184;-86
2023/08/06 10:11:53;;;;;;;2.45;2.25;;;20.30;73.70;;;;;;5074486;28;20216;-86
2023/08/06 10:14:31;;;;;;;2.97;2.60;;;20.20;73.60;;;;;;5074850;28;20170;-86
2023/08/06 10:17:04;;;;;;;2.40;2.20;;;20.30;73.70;;;;;;5057340;28;20165;-85
2023/08/06 10:19:30;;;;;;;2.47;2.20;;;20.20;73.60;;;;;;5040156;28;20259;-87
2023/08/06 10:22:12;;;;;;;2.90;2.60;;;20.30;73.60;;;;;;5075071;28;20203;-85
2023/08/06 10:24:50;;;;;;;2.45;2.25;;;20.30;73.70;;;;;;5074097;28;20150;-86
2023/08/06 10:27:28;;;;;;;2.78;2.42;;;20.30;73.80;;;;;;5057385;28;20644;-87
2023/08/06 10:30:31;;;;;;;2.70;2.50;;;20.30;73.70;;;;;;5075670;28;20161;-84
2023/08/06 10:33:01;;;;;;;2.55;2.35;;;20.30;73.70;;;;;;5076030;28;20153;-84
2023/08/06 10:35:50;;;;;;;2.75;2.45;;;20.30;73.80;;;;;;5074512;28;20673;-86
2023/08/06 10:38:33;;;;;;;2.75;2.15;;;20.30;73.80;;;;;;5074885;28;20164;-85
2023/08/06 10:41:03;;;;;;;2.85;2.53;;;20.30;73.90;;;;;;5074648;28;20193;-86
2023/08/06 10:43:33;;;;;;;2.45;2.25;;;20.30;73.80;;;;;;5057734;28;20175;-84
2023/08/06 10:46:01;;;;;;;2.40;2.20;;;20.30;73.90;;;;;;5057358;28;20166;-85
2023/08/06 10:48:35;;;;;;;2.50;2.30;;;20.30;74.00;;;;;;5074124;28;20226;-87
2023/08/06 10:51:02;;;;;;;2.50;2.20;;;20.30;74.00;;;;;;5073036;28;20630;-87
2023/08/06 10:53:28;;;;;;;2.70;2.50;;;20.20;74.00;;;;;;5056808;28;20578;-85
2023/08/06 10:56:01;;;;;;;2.78;2.42;;;20.30;74.20;;;;;;5057414;28;20172;-85
2023/08/06 10:58:36;;;;;;;2.75;2.42;;;20.30;74.40;;;;;;5056161;28;20188;-86
2023/08/06 11:01:02;;;;;;;2.50;2.30;;;20.30;74.50;;;;;;5057073;28;20223;-87
2023/08/06 11:03:28;;;;;;;2.90;2.50;;;20.30;74.60;;;;;;5074193;28;20612;-86
2023/08/06 11:06:02;;;;;;;2.75;2.50;;;20.30;74.70;;;;;;5075157;28;20608;-86
2023/08/06 11:08:29;;;;;;;2.47;2.28;;;20.20;74.70;;;;;;5058297;28;20158;-86
2023/08/06 11:11:10;;;;;;;2.70;2.40;;;20.30;75.00;;;;;;5057391;28;20225;-87
2023/08/06 11:13:41;;;;;;;2.80;2.50;;;20.30;75.00;;;;;;5075343;28;20172;-87
2023/08/06 11:16:07;;;;;;;2.60;2.40;;;20.30;75.20;;;;;;5058871;28;20184;-85
2023/08/06 11:18:42;;;;;;;2.70;2.40;;;20.30;75.20;;;;;;5075328;28;20152;-88
2023/08/06 11:21:08;;;;;;;2.60;2.15;;;20.20;75.20;;;;;;5074045;28;20189;-87
2023/08/06 11:23:34;;;;;;;2.97;2.63;;;20.30;75.50;;;;;;5073707;28;20248;-88
2023/08/06 11:26:00;;;;;;;2.90;2.53;;;20.20;75.40;;;;;;5073118;28;20149;-88
2023/08/06 11:28:26;;;;;;;2.33;2.13;;;20.30;75.80;;;;;;5074114;28;20189;-86
2023/08/06 11:30:53;;;;;;;2.80;2.30;;;20.20;75.70;;;;;;5075613;28;20165;-86
2023/08/06 11:33:26;;;;;;;2.50;2.20;;;20.30;76.00;;;;;;5057452;28;20159;-87
2023/08/06 11:35:52;;;;;;;2.83;2.50;;;20.30;76.30;;;;;;5072623;28;20624;-85
2023/08/06 11:38:18;;;;;;;3.15;2.63;;;20.30;76.30;;;;;;5073783;28;20154;-85
2023/08/06 11:40:49;;;;;;;2.58;2.38;;;20.20;76.70;;;;;;5077790;28;20546;-86
2023/08/06 11:43:15;;;;;;;4.10;2.30;;;20.30;76.90;;;;;;5075931;28;20181;-88
2023/08/06 11:45:41;;;;;;;2.58;2.38;;;20.20;77.10;;;;;;5077643;28;20154;-87
2023/08/06 11:48:09;;;;;;;2.38;2.17;;;20.20;77.20;;;;;;5060081;28;20180;-88
2023/08/06 11:50:38;;;;;;;3.35;2.67;;;20.20;77.40;;;;;;5076233;28;20185;-86
2023/08/06 11:53:04;;;;;;;2.55;2.35;;;20.20;77.50;;;;;;5076224;28;20145;-86
2023/08/06 11:55:31;;;;;;;3.00;2.30;;;20.20;77.90;;;;;;5076220;28;20170;-86
2023/08/06 11:57:57;;;;;;;3.00;2.60;;;20.20;78.20;;;;;;5076292;28;20240;-89
2023/08/06 12:00:24;;;;;;;2.53;2.33;;;20.10;78.30;;;;;;5059581;28;20243;-86
2023/08/06 12:02:52;;;;;;;2.63;2.42;;;20.20;78.40;;;;;;5075919;28;20158;-87
2023/08/06 12:05:20;;;;;;;2.80;2.50;;;20.20;78.80;;;;;;5075548;28;20179;-87
2023/08/06 12:07:49;;;;;;;2.90;2.60;;;20.20;78.80;;;;;;5075875;28;20169;-87
2023/08/06 12:10:15;;;;;;;2.95;2.50;;;20.20;78.90;;;;;;5058451;28;20172;-88
2023/08/06 12:12:41;;;;;;;2.80;2.45;;;20.20;79.30;;;;;;5059107;28;20162;-86
2023/08/06 12:15:08;;;;;;;2.65;2.45;;;20.10;79.40;;;;;;5058434;28;20291;-86
2023/08/06 12:17:34;;;;;;;3.03;2.55;;;20.10;79.40;;;;;;5076279;28;20635;-86
2023/08/06 12:20:11;;;;;;;3.08;2.78;;;20.10;79.60;;;;;;5075289;28;20632;-87
2023/08/06 12:22:39;;;;;;;3.00;2.70;;;20.10;79.80;;;;;;5058789;28;20185;-86
2023/08/06 12:25:07;;;;;;;2.75;2.53;;;20.10;79.80;;;;;;5074431;28;20172;-87
2023/08/06 12:27:35;;;;;;;3.20;2.90;;;20.10;80.20;;;;;;5074387;28;20190;-85
2023/08/06 12:30:01;;;;;;;2.75;2.55;;;20.10;80.50;;;;;;5057629;28;20722;-85
2023/08/06 12:32:27;;;;;;;3.00;2.70;;;20.00;80.60;;;;;;5075638;28;20154;-86
2023/08/06 12:34:53;;;;;;;3.17;2.72;;;20.00;80.70;;;;;;5057506;28;20636;-86
2023/08/06 12:37:19;;;;;;;3.50;2.83;;;20.00;81.10;;;;;;5074417;28;20232;-88
2023/08/06 12:39:45;;;;;;;3.10;2.78;;;20.00;81.60;;;;;;5074385;28;20189;-86
2023/08/06 12:42:11;;;;;;;3.10;2.67;;;20.00;81.80;;;;;;5074856;28;20674;-87
2023/08/06 12:44:37;;;;;;;2.80;2.50;;;20.00;82.10;;;;;;5075681;28;20248;-86
2023/08/06 12:47:03;;;;;;;3.95;2.70;;;20.00;82.40;;;;;;5075171;28;20160;-86
2023/08/06 12:49:31;;;;;;;3.30;2.90;;;19.90;82.50;;;;;;5075418;28;20181;-86